createdAt,value
2023-02-19T00:03:05.791Z,5.82
2023-02-19T00:07:07.358Z,6.20
2023-02-19T00:11:12.268Z,5.18
2023-02-19T00:15:13.859Z,6.10
2023-02-19T00:19:18.086Z,5.93
2023-02-19T00:23:19.965Z,6.07
2023-02-19T00:27:21.655Z,4.17
2023-02-19T00:31:25.817Z,5.38
2023-02-19T00:35:27.954Z,5.53
2023-02-19T00:39:29.615Z,5.00
2023-02-19T00:43:31.224Z,5.93
2023-02-19T00:47:32.762Z,5.72
2023-02-19T00:51:37.160Z,5.57
2023-02-19T00:55:38.739Z,4.93
2023-02-19T00:59:40.297Z,5.45
2023-02-19T01:03:42.040Z,6.25
2023-02-19T01:07:43.727Z,5.32
2023-02-19T01:11:45.571Z,5.55
2023-02-19T01:15:47.302Z,5.03
2023-02-19T01:19:49.062Z,5.22
2023-02-19T01:23:51.875Z,5.35
2023-02-19T01:27:56.249Z,5.07
2023-02-19T01:31:57.927Z,5.00
2023-02-19T01:36:00.169Z,4.65
2023-02-19T01:40:01.760Z,6.43
2023-02-19T01:44:25.894Z,4.95
2023-02-19T01:48:38.180Z,5.57
2023-02-19T01:52:39.796Z,5.53
2023-02-19T01:56:43.518Z,5.10
2023-02-19T02:00:45.322Z,5.60
2023-02-19T02:04:47.410Z,5.75
2023-02-19T02:09:12.009Z,5.32
2023-02-19T02:13:13.679Z,5.38
2023-02-19T02:17:26.102Z,5.07
2023-02-19T02:21:36.299Z,5.65
2023-02-19T02:26:06.264Z,5.40
2023-02-19T02:30:07.894Z,5.50
2023-02-19T02:34:16.115Z,4.60
2023-02-19T02:38:22.058Z,5.68
2023-02-19T02:42:29.618Z,5.28
2023-02-19T02:46:42.300Z,5.00
2023-02-19T02:51:03.520Z,5.07
2023-02-19T02:55:11.113Z,4.53
2023-02-19T02:59:15.885Z,4.20
2023-02-19T03:03:21.013Z,4.65
2023-02-19T03:07:22.701Z,4.20
2023-02-19T03:11:43.381Z,4.00
2023-02-19T03:16:17.064Z,4.40
2023-02-19T03:20:23.071Z,4.10
2023-02-19T03:24:50.487Z,4.25
2023-02-19T03:29:12.950Z,4.38
2023-02-19T03:33:22.348Z,4.40
2023-02-19T03:37:39.604Z,3.88
2023-02-19T03:42:04.466Z,4.57
2023-02-19T03:46:13.960Z,4.20
2023-02-19T03:50:28.102Z,5.03
2023-02-19T03:55:09.466Z,4.38
2023-02-19T03:59:22.018Z,4.45
2023-02-19T04:03:31.472Z,4.00
2023-02-19T04:07:37.676Z,4.47
2023-02-19T04:11:39.623Z,4.40
2023-02-19T04:15:46.531Z,4.25
2023-02-19T04:19:50.913Z,4.20
2023-02-19T04:23:52.720Z,3.97
2023-02-19T04:27:54.757Z,4.55
2023-02-19T04:31:56.529Z,4.90
2023-02-19T04:35:58.119Z,5.05
2023-02-19T04:39:59.666Z,5.22
2023-02-19T04:44:01.305Z,4.25
2023-02-19T04:48:03.147Z,4.82
2023-02-19T04:52:04.816Z,4.07
2023-02-19T04:56:08.670Z,5.45
2023-02-19T05:00:10.900Z,4.68
2023-02-19T05:04:12.565Z,4.80
2023-02-19T05:08:14.300Z,4.80
2023-02-19T05:12:15.844Z,5.32
2023-02-19T05:16:17.689Z,5.20
2023-02-19T05:20:19.401Z,4.87
2023-02-19T05:24:21.067Z,5.03
2023-02-19T05:28:28.674Z,5.00
2023-02-19T05:32:30.390Z,5.05
2023-02-19T05:36:32.612Z,5.32
2023-02-19T05:40:34.799Z,5.03
2023-02-19T05:44:36.346Z,5.27
2023-02-19T05:48:38.121Z,5.45
2023-02-19T05:52:39.642Z,5.47
2023-02-19T05:56:42.152Z,5.50
2023-02-19T06:00:43.717Z,4.80
2023-02-19T06:04:45.345Z,4.95
2023-02-19T06:08:49.726Z,4.75
2023-02-19T06:12:54.762Z,4.00
2023-02-19T06:16:56.340Z,3.92
2023-02-19T06:21:06.105Z,3.50
2023-02-19T06:25:12.199Z,3.58
2023-02-19T06:29:13.751Z,3.90
2023-02-19T06:33:15.488Z,4.88
2023-02-19T06:37:17.102Z,4.35
2023-02-19T06:41:19.271Z,5.03
2023-02-19T06:45:20.880Z,5.30
2023-02-19T06:49:22.895Z,5.50
2023-02-19T06:53:24.625Z,4.13
2023-02-19T06:57:26.149Z,4.68
2023-02-19T07:01:29.609Z,4.50
2023-02-19T07:05:31.169Z,4.20
2023-02-19T07:09:32.967Z,3.95
2023-02-19T07:13:34.564Z,4.20
2023-02-19T07:17:36.246Z,4.15
2023-02-19T07:21:37.871Z,4.05
2023-02-19T07:25:39.794Z,3.58
2023-02-19T07:29:41.347Z,3.70
2023-02-19T07:33:44.377Z,3.78
2023-02-19T07:37:45.959Z,4.07
2023-02-19T07:41:47.507Z,3.65
2023-02-19T07:46:05.486Z,3.72
2023-02-19T07:50:07.498Z,3.38
2023-02-19T07:54:09.134Z,3.20
2023-02-19T07:58:10.722Z,3.05
2023-02-19T08:02:35.999Z,2.40
2023-02-19T08:06:37.708Z,2.67
2023-02-19T08:10:58.449Z,2.92
2023-02-19T08:15:00.004Z,2.60
2023-02-19T08:19:02.374Z,2.67
2023-02-19T08:23:04.250Z,2.95
2023-02-19T08:27:05.811Z,2.53
2023-02-19T08:31:09.248Z,2.42
2023-02-19T08:35:11.744Z,2.45
2023-02-19T08:39:13.296Z,1.52
2023-02-19T08:43:17.423Z,1.58
2023-02-19T08:47:19.162Z,1.45
2023-02-19T08:51:20.786Z,1.42
2023-02-19T08:55:22.383Z,1.27
2023-02-19T08:59:23.985Z,1.33
2023-02-19T09:03:25.592Z,1.13
2023-02-19T09:07:27.968Z,1.33
2023-02-19T09:11:29.525Z,0.98
2023-02-19T09:15:31.381Z,1.40
2023-02-19T09:19:33.282Z,1.20
2023-02-19T09:23:36.364Z,1.42
2023-02-19T09:27:38.138Z,1.17
2023-02-19T09:31:39.871Z,1.25
2023-02-19T09:35:41.431Z,0.90
2023-02-19T09:39:43.036Z,0.70
2023-02-19T09:43:45.345Z,1.00
2023-02-19T09:47:47.399Z,1.08
2023-02-19T09:51:54.994Z,1.07
2023-02-19T09:55:56.869Z,1.15
2023-02-19T10:00:28.618Z,1.52
2023-02-19T10:04:30.263Z,1.30
2023-02-19T10:08:34.226Z,1.17
2023-02-19T10:12:35.857Z,1.00
2023-02-19T10:16:42.299Z,1.50
2023-02-19T10:20:44.006Z,0.90
2023-02-19T10:24:47.947Z,0.90
2023-02-19T10:28:49.856Z,1.17
2023-02-19T10:33:08.945Z,1.17
2023-02-19T10:37:16.115Z,1.02
2023-02-19T10:41:21.413Z,0.98
2023-02-19T10:45:32.542Z,1.77
2023-02-19T10:49:43.382Z,1.00
2023-02-19T10:53:48.134Z,1.10
2023-02-19T10:57:50.600Z,1.40
2023-02-19T11:02:20.784Z,1.45
2023-02-19T11:06:26.885Z,1.30
2023-02-19T11:10:36.554Z,1.25
2023-02-19T11:14:42.921Z,1.30
2023-02-19T11:18:45.179Z,1.77
2023-02-19T11:22:47.049Z,1.50
2023-02-19T11:26:48.942Z,1.52
2023-02-19T11:31:44.426Z,1.67
2023-02-19T11:36:10.513Z,1.40
2023-02-19T11:44:51.696Z,1.50
2023-02-19T11:49:14.206Z,1.60
2023-02-19T11:53:29.465Z,1.90
2023-02-19T11:57:31.018Z,1.52
2023-02-19T12:02:11.028Z,1.70
2023-02-19T12:06:26.739Z,1.45
2023-02-19T12:10:56.319Z,1.70
2023-02-19T12:15:49.437Z,1.20
2023-02-19T12:20:14.173Z,1.40
2023-02-19T12:24:49.152Z,1.48
2023-02-19T12:29:20.426Z,1.40
2023-02-19T12:33:49.325Z,1.10
2023-02-19T12:38:18.388Z,1.38
2023-02-19T12:42:51.146Z,1.95
2023-02-19T12:46:58.472Z,1.63
2023-02-19T12:51:12.256Z,1.73
2023-02-19T12:55:26.381Z,1.67
2023-02-19T12:59:36.929Z,1.67
2023-02-19T13:03:42.168Z,1.40
2023-02-19T13:07:48.656Z,1.70
2023-02-19T13:11:50.330Z,1.50
2023-02-19T13:16:00.164Z,1.88
2023-02-19T13:20:20.437Z,1.30
2023-02-19T13:24:35.524Z,1.50
2023-02-19T13:29:15.112Z,1.40
2023-02-19T13:33:39.923Z,1.55
2023-02-19T13:37:42.314Z,1.30
2023-02-19T13:41:51.582Z,1.52
2023-02-19T13:46:04.067Z,1.55
2023-02-19T13:50:07.764Z,1.95
2023-02-19T13:54:22.796Z,1.50
2023-02-19T13:58:33.369Z,1.25
2023-02-19T14:02:35.456Z,1.63
2023-02-19T14:07:05.064Z,1.30
2023-02-19T14:11:08.004Z,1.20
2023-02-19T14:15:24.954Z,1.35
2023-02-19T14:19:41.440Z,1.02
2023-02-19T14:23:43.695Z,1.30
2023-02-19T14:27:45.654Z,1.48
2023-02-19T14:31:47.545Z,1.30
2023-02-19T14:35:54.040Z,1.42
2023-02-19T14:39:57.770Z,1.23
2023-02-19T14:44:01.620Z,1.75
2023-02-19T14:48:03.853Z,1.20
2023-02-19T14:52:08.364Z,1.20
2023-02-19T14:56:23.831Z,1.25
2023-02-19T15:00:33.439Z,0.95
2023-02-19T15:04:36.831Z,1.40
2023-02-19T15:08:43.775Z,1.20
2023-02-19T15:12:55.165Z,1.20
2023-02-19T15:17:01.270Z,1.02
2023-02-19T15:21:05.695Z,1.40
2023-02-19T15:25:15.875Z,0.90
2023-02-19T15:29:20.304Z,0.90
2023-02-19T15:33:22.221Z,0.90
2023-02-19T15:37:25.846Z,0.90
2023-02-19T15:41:31.864Z,1.00
2023-02-19T15:45:44.632Z,1.02
2023-02-19T15:49:54.426Z,1.10
2023-02-19T15:54:04.262Z,2.17
2023-02-19T15:58:14.806Z,1.45
2023-02-19T16:02:16.904Z,2.80
2023-02-19T16:06:18.833Z,2.00
2023-02-19T16:10:25.691Z,2.08
2023-02-19T16:14:38.056Z,2.35
2023-02-19T16:18:45.606Z,1.40
2023-02-19T16:22:47.552Z,2.20
2023-02-19T16:26:49.158Z,2.00
2023-02-19T16:31:01.057Z,2.15
2023-02-19T16:35:02.883Z,1.70
2023-02-19T16:39:07.790Z,1.67
2023-02-19T16:43:12.216Z,1.83
2023-02-19T16:47:26.272Z,2.85
2023-02-19T16:51:28.280Z,8.32
2023-02-19T16:55:34.943Z,2.72
2023-02-19T16:59:37.052Z,2.90
2023-02-19T17:03:39.595Z,2.00
2023-02-19T17:07:41.295Z,2.17
2023-02-19T17:11:42.886Z,2.85
2023-02-19T17:15:44.461Z,2.25
2023-02-19T17:19:46.117Z,4.30
2023-02-19T17:23:47.666Z,5.50
2023-02-19T17:27:49.497Z,5.75
2023-02-19T17:31:51.819Z,5.97
2023-02-19T17:35:53.518Z,5.50
2023-02-19T17:39:55.103Z,6.63
2023-02-19T17:43:56.780Z,3.40
2023-02-19T17:47:58.762Z,3.08
2023-02-19T17:52:00.349Z,2.10
2023-02-19T17:56:01.908Z,1.90
2023-02-19T18:00:07.048Z,1.80
2023-02-19T18:04:14.074Z,1.75
2023-02-19T18:08:15.638Z,1.42
2023-02-19T18:12:17.238Z,1.85
2023-02-19T18:16:19.115Z,1.58
2023-02-19T18:20:26.461Z,1.60
2023-02-19T18:24:28.121Z,1.48
2023-02-19T18:28:29.716Z,1.73
2023-02-19T18:32:31.325Z,1.70
2023-02-19T18:36:33.024Z,1.75
2023-02-19T18:40:34.780Z,2.13
2023-02-19T18:44:37.949Z,2.90
2023-02-19T18:48:39.494Z,2.40
2023-02-19T18:52:41.109Z,2.28
2023-02-19T18:56:46.490Z,2.60
2023-02-19T19:00:48.123Z,2.28
2023-02-19T19:04:52.987Z,2.60
2023-02-19T19:08:54.583Z,2.67
2023-02-19T19:12:57.652Z,1.83
2023-02-19T19:17:00.295Z,2.58
2023-02-19T19:21:03.547Z,2.20
2023-02-19T19:25:05.414Z,2.75
2023-02-19T19:29:08.180Z,2.90
2023-02-19T19:33:09.766Z,2.50
2023-02-19T19:37:12.430Z,2.42
2023-02-19T19:41:16.001Z,2.90
2023-02-19T19:45:18.233Z,2.85
2023-02-19T19:49:21.864Z,2.90
2023-02-19T19:53:24.252Z,3.25
2023-02-19T19:57:25.852Z,4.03
2023-02-19T20:01:27.441Z,4.13
2023-02-19T20:05:29.099Z,4.40
2023-02-19T20:09:30.730Z,3.83
2023-02-19T20:13:34.056Z,3.63
2023-02-19T20:17:36.461Z,3.50
2023-02-19T20:21:38.018Z,3.00
2023-02-19T20:25:39.670Z,3.45
2023-02-19T20:29:44.177Z,3.10
2023-02-19T20:33:46.904Z,3.00
2023-02-19T20:37:49.466Z,3.42
2023-02-19T20:41:51.942Z,3.30
2023-02-19T20:45:53.535Z,3.42
2023-02-19T20:49:55.193Z,3.08
2023-02-19T20:53:56.720Z,3.45
2023-02-19T20:57:58.390Z,2.40
2023-02-19T21:02:00.536Z,3.13
2023-02-19T21:06:02.447Z,3.28
2023-02-19T21:10:04.131Z,3.20
2023-02-19T21:14:05.744Z,2.67
2023-02-19T21:18:07.401Z,3.28
2023-02-19T21:22:08.947Z,3.67
2023-02-19T21:26:11.696Z,3.72
2023-02-19T21:34:18.665Z,3.67
2023-02-19T21:38:20.228Z,3.63
2023-02-19T21:42:21.800Z,4.20
2023-02-19T21:46:23.990Z,3.75
2023-02-19T21:50:25.541Z,3.13
2023-02-19T21:54:27.219Z,3.50
2023-02-19T21:58:28.758Z,3.50
2023-02-19T22:02:30.357Z,3.58
2023-02-19T22:06:32.042Z,4.13
2023-02-19T22:10:33.618Z,4.28
2023-02-19T22:14:35.183Z,3.67
2023-02-19T22:18:36.930Z,4.32
2023-02-19T22:22:38.470Z,3.90
2023-02-19T22:26:40.021Z,3.90
2023-02-19T22:30:42.916Z,4.03
2023-02-19T22:38:46.541Z,4.10
2023-02-19T22:42:48.095Z,3.80
2023-02-19T22:46:54.794Z,4.25
2023-02-19T22:50:57.342Z,3.80
2023-02-19T22:55:00.013Z,3.28
2023-02-19T22:59:01.593Z,3.72
2023-02-19T23:03:03.355Z,3.65
2023-02-19T23:07:08.044Z,3.50
2023-02-19T23:11:11.583Z,3.72
2023-02-19T23:15:13.161Z,3.17
2023-02-19T23:19:16.248Z,3.70
2023-02-19T23:23:17.995Z,3.63
2023-02-19T23:27:20.011Z,4.00
2023-02-19T23:31:21.820Z,4.00
2023-02-19T23:35:23.571Z,4.57
2023-02-19T23:39:25.402Z,3.75
2023-02-19T23:43:27.123Z,4.47
2023-02-19T23:47:30.666Z,3.97
2023-02-19T23:51:32.406Z,4.07
2023-02-19T23:55:34.021Z,4.07
2023-02-19T23:59:35.606Z,4.45
